An Xiu Shan — BRQV — position and weather

sailwx.info

Track history (hours):
 
Tides and Currents Weather Stations Pressure Air Temp Water Temp Dewpoint Dewpoint Depression Visibility Wind Speed Wind Dir Waves Ship Positions

An Xiu Shan

Last reported at 2016-Sep-26 13:21 UTC. Time now 2016-Sep-29 18:47 UTC.
Position N 38°31' E 121°07'.

Length 199 m; draft 7.1 m.

Type: Cargo ship. MMSI: 413195000.

Date/timePositionNaut miles runAvg speedWind from/ knotsBaromVisibWave heightAir tempDewpointWater temp
2016-Sep-26 13:21N 38°31' E 121°07'2211.9
2016-Sep-26 11:31N 38°20' E 121°31'3511.5
2016-Sep-26 08:30N 37°60' E 122°07'6811.5
2016-Sep-26 02:33N 37°02' E 122°54'1111.4
2016-Sep-26 01:33N 36°51' E 122°54'1211.1
2016-Sep-26 00:29N 36°39' E 122°54'32710.4
2016-Sep-24 17:08N 31°16' E 121°53'813.8
2016-Sep-24 16:33N 31°19' E 121°44'2110.7
2016-Sep-24 14:33N 31°31' E 121°23'2210.9
2016-Sep-24 12:33N 31°45' E 121°04'28 9.0
2016-Sep-24 09:26N 32°00' E 120°36'2 0.3
2016-Sep-24 03:12N 32°02' E 120°35'0 0.0
2016-Sep-24 02:12N 32°02' E 120°35'0 0.0
2016-Sep-24 01:18N 32°02' E 120°35'0 0.0
2016-Sep-24 00:27N 32°02' E 120°35'0 0.0
2016-Sep-23 15:27N 32°02' E 120°35'0 0.0
2016-Sep-23 13:12N 32°02' E 120°35'1 0.1
2016-Sep-23 01:23N 32°01' E 120°36'7 9.0
2016-Sep-23 00:33N 32°01' E 120°44'38 3.2
2016-Sep-22 12:31N 31°35' E 121°18'  
2016-Sep-19 03:33N 36°53' E 122°51'1111.1
2016-Sep-19 02:33N 37°04' E 122°48'224 9.3
2016-Sep-18 02:33N 39°53' E 119°42'2 1.7
2016-Sep-18 01:20N 39°55' E 119°41'0 0.0
2016-Sep-18 00:33N 39°55' E 119°41'0 0.0
2016-Sep-17 22:33N 39°55' E 119°41'0 0.0
2016-Sep-17 21:27N 39°55' E 119°41'0 0.0
2016-Sep-17 20:21N 39°55' E 119°41'0 0.0
2016-Sep-17 19:09N 39°55' E 119°41'0 0.0
2016-Sep-17 13:33N 39°55' E 119°41'0 0.0
2016-Sep-17 12:33N 39°55' E 119°41'0 0.0
2016-Sep-17 10:33N 39°55' E 119°41'0 0.0
2016-Sep-17 09:33N 39°55' E 119°41'0 0.0
2016-Sep-17 08:27N 39°55' E 119°41'0 0.0
2016-Sep-17 07:33N 39°55' E 119°41'6 2.9
2016-Sep-17 05:25N 39°51' E 119°47'0 0.1
2016-Sep-17 04:31N 39°51' E 119°47'102 9.2
2016-Sep-16 17:29N 38°31' E 121°08'2311.8
2016-Sep-16 15:31N 38°17' E 121°32'  
Track history (hours):
 
Tides and Currents Weather Stations Pressure Air Temp Water Temp Dewpoint Dewpoint Depression Visibility Wind Speed Wind Dir Waves Ship Positions

An Xiu Shan

Last reported at 2016-Sep-26 13:21 UTC. Time now 2016-Sep-29 18:47 UTC.
Position N 38°31' E 121°07'.

Length 199 m; draft 7.1 m.

Type: Cargo ship. MMSI: 413195000.

Date/timePositionNaut miles runAvg speedWind from/ knotsBaromVisibWave heightAir tempDewpointWater temp
2016-Sep-26 13:21N 38°31' E 121°07'2211.9
2016-Sep-26 11:31N 38°20' E 121°31'3511.5
2016-Sep-26 08:30N 37°60' E 122°07'6811.5
2016-Sep-26 02:33N 37°02' E 122°54'1111.4
2016-Sep-26 01:33N 36°51' E 122°54'1211.1
2016-Sep-26 00:29N 36°39' E 122°54'32710.4
2016-Sep-24 17:08N 31°16' E 121°53'813.8
2016-Sep-24 16:33N 31°19' E 121°44'2110.7
2016-Sep-24 14:33N 31°31' E 121°23'2210.9
2016-Sep-24 12:33N 31°45' E 121°04'28 9.0
2016-Sep-24 09:26N 32°00' E 120°36'2 0.3
2016-Sep-24 03:12N 32°02' E 120°35'0 0.0
2016-Sep-24 02:12N 32°02' E 120°35'0 0.0
2016-Sep-24 01:18N 32°02' E 120°35'0 0.0
2016-Sep-24 00:27N 32°02' E 120°35'0 0.0
2016-Sep-23 15:27N 32°02' E 120°35'0 0.0
2016-Sep-23 13:12N 32°02' E 120°35'1 0.1
2016-Sep-23 01:23N 32°01' E 120°36'7 9.0
2016-Sep-23 00:33N 32°01' E 120°44'38 3.2
2016-Sep-22 12:31N 31°35' E 121°18'  
2016-Sep-19 03:33N 36°53' E 122°51'1111.1
2016-Sep-19 02:33N 37°04' E 122°48'224 9.3
2016-Sep-18 02:33N 39°53' E 119°42'2 1.7
2016-Sep-18 01:20N 39°55' E 119°41'0 0.0
2016-Sep-18 00:33N 39°55' E 119°41'0 0.0
2016-Sep-17 22:33N 39°55' E 119°41'0 0.0
2016-Sep-17 21:27N 39°55' E 119°41'0 0.0
2016-Sep-17 20:21N 39°55' E 119°41'0 0.0
2016-Sep-17 19:09N 39°55' E 119°41'0 0.0
2016-Sep-17 13:33N 39°55' E 119°41'0 0.0
2016-Sep-17 12:33N 39°55' E 119°41'0 0.0
2016-Sep-17 10:33N 39°55' E 119°41'0 0.0
2016-Sep-17 09:33N 39°55' E 119°41'0 0.0
2016-Sep-17 08:27N 39°55' E 119°41'0 0.0
2016-Sep-17 07:33N 39°55' E 119°41'6 2.9
2016-Sep-17 05:25N 39°51' E 119°47'0 0.1
2016-Sep-17 04:31N 39°51' E 119°47'102 9.2
2016-Sep-16 17:29N 38°31' E 121°08'2311.8
2016-Sep-16 15:31N 38°17' E 121°32'  

Dump ship's entire track history